sensor_id;sensor_type;location;lat;lon;timestamp;temperature;humidity
16247;DHT22;8231;50.866;7.944;2023-05-13T00:01:38;10.50;99.90
16247;DHT22;8231;50.866;7.944;2023-05-13T00:04:09;10.60;99.90
16247;DHT22;8231;50.866;7.944;2023-05-13T00:06:37;10.50;99.90
16247;DHT22;8231;50.866;7.944;2023-05-13T00:09:06;10.50;99.90
16247;DHT22;8231;50.866;7.944;2023-05-13T00:11:35;10.40;99.90
16247;DHT22;8231;50.866;7.944;2023-05-13T00:14:04;10.40;99.90
16247;DHT22;8231;50.866;7.944;2023-05-13T00:16:35;10.40;99.90
16247;DHT22;8231;50.866;7.944;2023-05-13T00:19:04;10.40;99.90
16247;DHT22;8231;50.866;7.944;2023-05-13T00:21:34;10.60;99.90
16247;DHT22;8231;50.866;7.944;2023-05-13T00:24:03;10.30;99.90
16247;DHT22;8231;50.866;7.944;2023-05-13T00:26:32;10.30;99.90
16247;DHT22;8231;50.866;7.944;2023-05-13T00:29:00;10.20;99.90
16247;DHT22;8231;50.866;7.944;2023-05-13T00:31:28;10.10;99.90
16247;DHT22;8231;50.866;7.944;2023-05-13T00:33:57;10.10;99.90
16247;DHT22;8231;50.866;7.944;2023-05-13T00:36:25;10.00;99.90
16247;DHT22;8231;50.866;7.944;2023-05-13T00:38:56;10.00;99.90
16247;DHT22;8231;50.866;7.944;2023-05-13T00:41:24;10.00;99.90
16247;DHT22;8231;50.866;7.944;2023-05-13T00:43:53;10.00;99.90
16247;DHT22;8231;50.866;7.944;2023-05-13T00:46:22;9.90;99.90
16247;DHT22;8231;50.866;7.944;2023-05-13T00:48:51;9.90;99.90
16247;DHT22;8231;50.866;7.944;2023-05-13T00:51:19;9.90;99.90
16247;DHT22;8231;50.866;7.944;2023-05-13T00:53:48;9.80;99.90
16247;DHT22;8231;50.866;7.944;2023-05-13T00:56:19;9.80;99.90
16247;DHT22;8231;50.866;7.944;2023-05-13T00:58:48;9.70;99.90
16247;DHT22;8231;50.866;7.944;2023-05-13T01:01:23;9.70;99.90
16247;DHT22;8231;50.866;7.944;2023-05-13T01:04:06;9.60;99.90
16247;DHT22;8231;50.866;7.944;2023-05-13T01:06:44;9.70;99.90
16247;DHT22;8231;50.866;7.944;2023-05-13T01:09:19;9.50;99.90
16247;DHT22;8231;50.866;7.944;2023-05-13T01:11:52;9.40;99.90
16247;DHT22;8231;50.866;7.944;2023-05-13T01:14:25;10.10;99.90
16247;DHT22;8231;50.866;7.944;2023-05-13T01:17:01;9.40;99.90
16247;DHT22;8231;50.866;7.944;2023-05-13T01:19:38;9.30;99.90
16247;DHT22;8231;50.866;7.944;2023-05-13T01:22:10;9.20;99.90
16247;DHT22;8231;50.866;7.944;2023-05-13T01:24:38;9.20;99.90
16247;DHT22;8231;50.866;7.944;2023-05-13T01:27:07;9.10;99.90
16247;DHT22;8231;50.866;7.944;2023-05-13T01:29:36;9.10;99.90
16247;DHT22;8231;50.866;7.944;2023-05-13T01:32:06;9.10;99.90
16247;DHT22;8231;50.866;7.944;2023-05-13T01:34:37;9.00;99.90
16247;DHT22;8231;50.866;7.944;2023-05-13T01:37:06;8.90;99.90
16247;DHT22;8231;50.866;7.944;2023-05-13T01:39:38;8.90;99.90
16247;DHT22;8231;50.866;7.944;2023-05-13T01:42:11;8.80;99.90
16247;DHT22;8231;50.866;7.944;2023-05-13T01:44:39;8.80;99.90
16247;DHT22;8231;50.866;7.944;2023-05-13T01:47:08;8.80;99.90
16247;DHT22;8231;50.866;7.944;2023-05-13T01:49:36;9.10;99.90
16247;DHT22;8231;50.866;7.944;2023-05-13T01:52:06;8.60;99.90
16247;DHT22;8231;50.866;7.944;2023-05-13T01:54:34;8.60;99.90
16247;DHT22;8231;50.866;7.944;2023-05-13T01:57:09;8.60;99.90
16247;DHT22;8231;50.866;7.944;2023-05-13T01:59:37;8.60;99.90
16247;DHT22;8231;50.866;7.944;2023-05-13T02:02:05;8.60;99.90
16247;DHT22;8231;50.866;7.944;2023-05-13T02:04:34;8.50;99.90
16247;DHT22;8231;50.866;7.944;2023-05-13T02:07:02;8.50;99.90
16247;DHT22;8231;50.866;7.944;2023-05-13T02:09:32;8.40;99.90
16247;DHT22;8231;50.866;7.944;2023-05-13T02:12:00;8.40;99.90
16247;DHT22;8231;50.866;7.944;2023-05-13T02:14:30;8.30;99.90
16247;DHT22;8231;50.866;7.944;2023-05-13T02:17:01;8.30;99.90
16247;DHT22;8231;50.866;7.944;2023-05-13T02:19:29;8.20;99.90
16247;DHT22;8231;50.866;7.944;2023-05-13T02:21:58;8.20;99.90
16247;DHT22;8231;50.866;7.944;2023-05-13T02:24:29;8.10;99.90
16247;DHT22;8231;50.866;7.944;2023-05-13T02:26:58;8.10;99.90
16247;DHT22;8231;50.866;7.944;2023-05-13T02:29:26;8.30;99.90
16247;DHT22;8231;50.866;7.944;2023-05-13T02:31:56;8.00;99.90
16247;DHT22;8231;50.866;7.944;2023-05-13T02:34:24;8.40;99.90
16247;DHT22;8231;50.866;7.944;2023-05-13T02:36:53;7.80;99.90
16247;DHT22;8231;50.866;7.944;2023-05-13T02:39:21;8.30;99.90
16247;DHT22;8231;50.866;7.944;2023-05-13T02:41:50;7.80;99.90
16247;DHT22;8231;50.866;7.944;2023-05-13T02:44:18;8.40;99.90
16247;DHT22;8231;50.866;7.944;2023-05-13T02:46:46;7.70;99.90
16247;DHT22;8231;50.866;7.944;2023-05-13T02:49:16;7.80;99.90
16247;DHT22;8231;50.866;7.944;2023-05-13T02:51:44;7.70;99.90
16247;DHT22;8231;50.866;7.944;2023-05-13T02:54:13;7.60;99.90
16247;DHT22;8231;50.866;7.944;2023-05-13T02:56:42;7.60;99.90
16247;DHT22;8231;50.866;7.944;2023-05-13T02:59:10;8.40;99.90
16247;DHT22;8231;50.866;7.944;2023-05-13T03:01:38;7.50;99.90
16247;DHT22;8231;50.866;7.944;2023-05-13T03:04:07;7.80;99.90
16247;DHT22;8231;50.866;7.944;2023-05-13T03:06:37;7.40;99.90
16247;DHT22;8231;50.866;7.944;2023-05-13T03:09:05;7.50;99.90
16247;DHT22;8231;50.866;7.944;2023-05-13T03:11:34;7.30;99.90
16247;DHT22;8231;50.866;7.944;2023-05-13T03:14:02;7.30;99.90
16247;DHT22;8231;50.866;7.944;2023-05-13T03:16:30;7.30;99.90
16247;DHT22;8231;50.866;7.944;2023-05-13T03:18:58;7.40;99.90
16247;DHT22;8231;50.866;7.944;2023-05-13T03:21:27;7.40;99.90
16247;DHT22;8231;50.866;7.944;2023-05-13T03:23:56;7.40;99.90
16247;DHT22;8231;50.866;7.944;2023-05-13T03:26:24;7.40;99.90
16247;DHT22;8231;50.866;7.944;2023-05-13T03:28:53;7.40;99.90
16247;DHT22;8231;50.866;7.944;2023-05-13T03:31:22;7.50;99.90
16247;DHT22;8231;50.866;7.944;2023-05-13T03:33:51;7.60;99.90
16247;DHT22;8231;50.866;7.944;2023-05-13T03:36:19;7.40;99.90
16247;DHT22;8231;50.866;7.944;2023-05-13T03:38:48;7.80;99.90
16247;DHT22;8231;50.866;7.944;2023-05-13T03:41:18;7.50;99.90
16247;DHT22;8231;50.866;7.944;2023-05-13T03:43:47;7.50;99.90
16247;DHT22;8231;50.866;7.944;2023-05-13T03:46:41;7.70;99.90
16247;DHT22;8231;50.866;7.944;2023-05-13T03:49:10;7.60;99.90
16247;DHT22;8231;50.866;7.944;2023-05-13T03:51:38;7.60;99.90
16247;DHT22;8231;50.866;7.944;2023-05-13T03:54:07;7.80;99.90
16247;DHT22;8231;50.866;7.944;2023-05-13T03:56:36;7.60;99.90
16247;DHT22;8231;50.866;7.944;2023-05-13T03:59:05;7.60;99.90
16247;DHT22;8231;50.866;7.944;2023-05-13T04:01:35;7.70;99.90
16247;DHT22;8231;50.866;7.944;2023-05-13T04:04:03;7.70;99.90
16247;DHT22;8231;50.866;7.944;2023-05-13T04:06:31;7.80;99.90
16247;DHT22;8231;50.866;7.944;2023-05-13T04:09:00;7.80;99.90
16247;DHT22;8231;50.866;7.944;2023-05-13T04:11:30;7.80;99.90
16247;DHT22;8231;50.866;7.944;2023-05-13T04:14:00;7.90;99.90
16247;DHT22;8231;50.866;7.944;2023-05-13T04:16:28;8.00;99.90
16247;DHT22;8231;50.866;7.944;2023-05-13T04:18:56;8.00;99.90
16247;DHT22;8231;50.866;7.944;2023-05-13T04:21:26;8.00;99.90
16247;DHT22;8231;50.866;7.944;2023-05-13T04:23:55;8.10;99.90
16247;DHT22;8231;50.866;7.944;2023-05-13T04:26:24;8.10;99.90
16247;DHT22;8231;50.866;7.944;2023-05-13T04:28:52;8.20;99.90
16247;DHT22;8231;50.866;7.944;2023-05-13T04:31:22;8.20;99.90
16247;DHT22;8231;50.866;7.944;2023-05-13T04:33:50;8.30;99.90
16247;DHT22;8231;50.866;7.944;2023-05-13T04:36:19;8.30;99.90
16247;DHT22;8231;50.866;7.944;2023-05-13T04:38:47;8.40;99.90
16247;DHT22;8231;50.866;7.944;2023-05-13T04:41:17;8.60;99.90
16247;DHT22;8231;50.866;7.944;2023-05-13T04:43:45;8.70;99.90
16247;DHT22;8231;50.866;7.944;2023-05-13T04:46:14;8.90;99.90
16247;DHT22;8231;50.866;7.944;2023-05-13T04:48:43;8.70;99.90
16247;DHT22;8231;50.866;7.944;2023-05-13T04:51:15;8.80;99.90
16247;DHT22;8231;50.866;7.944;2023-05-13T04:53:44;8.90;99.90
16247;DHT22;8231;50.866;7.944;2023-05-13T04:56:12;9.20;99.90
16247;DHT22;8231;50.866;7.944;2023-05-13T04:58:42;9.20;99.90
16247;DHT22;8231;50.866;7.944;2023-05-13T05:01:12;9.50;99.90
16247;DHT22;8231;50.866;7.944;2023-05-13T05:03:41;9.90;99.90
16247;DHT22;8231;50.866;7.944;2023-05-13T05:06:47;10.50;99.90
16247;DHT22;8231;50.866;7.944;2023-05-13T05:09:16;11.60;99.90
16247;DHT22;8231;50.866;7.944;2023-05-13T05:11:47;12.70;99.90
16247;DHT22;8231;50.866;7.944;2023-05-13T05:14:17;12.40;99.90
16247;DHT22;8231;50.866;7.944;2023-05-13T05:16:48;12.60;99.90
16247;DHT22;8231;50.866;7.944;2023-05-13T05:19:19;12.50;99.90
16247;DHT22;8231;50.866;7.944;2023-05-13T05:21:52;12.40;99.90
16247;DHT22;8231;50.866;7.944;2023-05-13T05:24:20;12.40;99.90
16247;DHT22;8231;50.866;7.944;2023-05-13T05:26:48;12.20;99.90
16247;DHT22;8231;50.866;7.944;2023-05-13T05:29:17;12.20;99.90
16247;DHT22;8231;50.866;7.944;2023-05-13T05:31:45;12.70;99.90
16247;DHT22;8231;50.866;7.944;2023-05-13T05:34:14;13.10;99.90
16247;DHT22;8231;50.866;7.944;2023-05-13T05:36:42;13.40;99.90
16247;DHT22;8231;50.866;7.944;2023-05-13T05:39:13;13.30;99.90
16247;DHT22;8231;50.866;7.944;2023-05-13T05:41:42;13.40;99.90
16247;DHT22;8231;50.866;7.944;2023-05-13T05:44:11;13.90;99.90
16247;DHT22;8231;50.866;7.944;2023-05-13T05:46:40;14.50;99.90
16247;DHT22;8231;50.866;7.944;2023-05-13T05:49:08;15.10;99.90
16247;DHT22;8231;50.866;7.944;2023-05-13T05:51:37;15.70;99.90
16247;DHT22;8231;50.866;7.944;2023-05-13T05:54:07;16.30;99.90
16247;DHT22;8231;50.866;7.944;2023-05-13T05:56:37;17.00;99.90
16247;DHT22;8231;50.866;7.944;2023-05-13T05:59:06;17.60;99.90
16247;DHT22;8231;50.866;7.944;2023-05-13T06:01:34;18.20;99.90
16247;DHT22;8231;50.866;7.944;2023-05-13T06:04:03;18.90;99.90
16247;DHT22;8231;50.866;7.944;2023-05-13T06:06:32;19.20;99.90
16247;DHT22;8231;50.866;7.944;2023-05-13T06:09:01;19.40;99.90
16247;DHT22;8231;50.866;7.944;2023-05-13T06:11:30;18.90;99.90
16247;DHT22;8231;50.866;7.944;2023-05-13T06:14:00;18.30;99.90
16247;DHT22;8231;50.866;7.944;2023-05-13T06:16:28;17.70;99.90
16247;DHT22;8231;50.866;7.944;2023-05-13T06:18:59;17.30;99.90
16247;DHT22;8231;50.866;7.944;2023-05-13T06:21:27;17.30;99.90
16247;DHT22;8231;50.866;7.944;2023-05-13T06:23:55;17.50;99.90
16247;DHT22;8231;50.866;7.944;2023-05-13T06:26:23;17.80;99.90
16247;DHT22;8231;50.866;7.944;2023-05-13T06:28:52;18.40;99.90
16247;DHT22;8231;50.866;7.944;2023-05-13T06:31:21;19.40;99.90
16247;DHT22;8231;50.866;7.944;2023-05-13T06:33:50;20.30;99.90
16247;DHT22;8231;50.866;7.944;2023-05-13T06:36:19;21.40;99.90
16247;DHT22;8231;50.866;7.944;2023-05-13T06:38:47;22.40;99.90
16247;DHT22;8231;50.866;7.944;2023-05-13T06:41:16;23.00;99.90
16247;DHT22;8231;50.866;7.944;2023-05-13T06:43:44;23.60;99.90
16247;DHT22;8231;50.866;7.944;2023-05-13T06:46:22;24.20;99.90
16247;DHT22;8231;50.866;7.944;2023-05-13T06:48:50;24.50;99.90
16247;DHT22;8231;50.866;7.944;2023-05-13T06:51:19;25.00;99.90
16247;DHT22;8231;50.866;7.944;2023-05-13T06:53:47;25.40;99.90
16247;DHT22;8231;50.866;7.944;2023-05-13T06:56:16;25.80;98.80
16247;DHT22;8231;50.866;7.944;2023-05-13T06:58:44;26.10;97.50
16247;DHT22;8231;50.866;7.944;2023-05-13T07:01:12;26.40;93.50
16247;DHT22;8231;50.866;7.944;2023-05-13T07:03:42;26.50;93.00
16247;DHT22;8231;50.866;7.944;2023-05-13T07:06:11;26.90;92.40
16247;DHT22;8231;50.866;7.944;2023-05-13T07:08:40;26.80;89.40
16247;DHT22;8231;50.866;7.944;2023-05-13T07:11:08;26.90;90.00
16247;DHT22;8231;50.866;7.944;2023-05-13T07:13:36;26.90;86.70
16247;DHT22;8231;50.866;7.944;2023-05-13T07:16:05;26.70;84.80
16247;DHT22;8231;50.866;7.944;2023-05-13T07:18:34;26.80;86.50
16247;DHT22;8231;50.866;7.944;2023-05-13T07:21:04;27.10;81.10
16247;DHT22;8231;50.866;7.944;2023-05-13T07:23:32;27.10;83.70
16247;DHT22;8231;50.866;7.944;2023-05-13T07:26:02;27.50;80.70
16247;DHT22;8231;50.866;7.944;2023-05-13T07:28:30;27.70;82.10
16247;DHT22;8231;50.866;7.944;2023-05-13T07:30:59;27.70;79.90
16247;DHT22;8231;50.866;7.944;2023-05-13T07:33:27;27.80;81.40
16247;DHT22;8231;50.866;7.944;2023-05-13T07:35:56;28.20;81.10
16247;DHT22;8231;50.866;7.944;2023-05-13T07:38:25;28.40;76.80
16247;DHT22;8231;50.866;7.944;2023-05-13T07:40:53;28.20;77.70
16247;DHT22;8231;50.866;7.944;2023-05-13T07:43:22;27.40;79.70
16247;DHT22;8231;50.866;7.944;2023-05-13T07:45:51;26.90;80.00
16247;DHT22;8231;50.866;7.944;2023-05-13T07:48:19;26.20;79.40
16247;DHT22;8231;50.866;7.944;2023-05-13T07:50:47;25.50;83.90
16247;DHT22;8231;50.866;7.944;2023-05-13T07:53:15;25.30;84.60
16247;DHT22;8231;50.866;7.944;2023-05-13T07:55:47;25.50;85.80
16247;DHT22;8231;50.866;7.944;2023-05-13T07:58:15;26.30;81.70
16247;DHT22;8231;50.866;7.944;2023-05-13T08:00:44;27.20;83.50
16247;DHT22;8231;50.866;7.944;2023-05-13T08:03:13;27.80;79.00
16247;DHT22;8231;50.866;7.944;2023-05-13T08:05:42;28.30;77.60
16247;DHT22;8231;50.866;7.944;2023-05-13T08:08:10;29.10;75.50
16247;DHT22;8231;50.866;7.944;2023-05-13T08:10:38;29.30;79.40
16247;DHT22;8231;50.866;7.944;2023-05-13T08:13:10;29.60;76.80
16247;DHT22;8231;50.866;7.944;2023-05-13T08:15:38;29.60;74.60
16247;DHT22;8231;50.866;7.944;2023-05-13T08:18:06;29.80;72.30
16247;DHT22;8231;50.866;7.944;2023-05-13T08:20:35;30.10;74.40
16247;DHT22;8231;50.866;7.944;2023-05-13T08:23:03;30.50;73.00
16247;DHT22;8231;50.866;7.944;2023-05-13T08:25:32;30.60;71.50
16247;DHT22;8231;50.866;7.944;2023-05-13T08:28:01;30.10;67.60
16247;DHT22;8231;50.866;7.944;2023-05-13T08:30:30;29.80;68.10
16247;DHT22;8231;50.866;7.944;2023-05-13T08:32:59;29.90;67.40
16247;DHT22;8231;50.866;7.944;2023-05-13T08:35:27;30.20;70.80
16247;DHT22;8231;50.866;7.944;2023-05-13T08:37:56;30.50;70.90
16247;DHT22;8231;50.866;7.944;2023-05-13T08:40:24;30.40;66.30
16247;DHT22;8231;50.866;7.944;2023-05-13T08:42:54;30.50;68.80
16247;DHT22;8231;50.866;7.944;2023-05-13T08:49:04;30.20;62.60
16247;DHT22;8231;50.866;7.944;2023-05-13T08:51:32;29.80;63.10
16247;DHT22;8231;50.866;7.944;2023-05-13T08:54:01;29.80;68.00
16247;DHT22;8231;50.866;7.944;2023-05-13T08:56:30;30.10;64.00
16247;DHT22;8231;50.866;7.944;2023-05-13T08:58:58;30.30;65.80
16247;DHT22;8231;50.866;7.944;2023-05-13T09:01:27;30.40;59.80
16247;DHT22;8231;50.866;7.944;2023-05-13T09:03:58;30.20;62.50
16247;DHT22;8231;50.866;7.944;2023-05-13T09:06:29;30.10;59.20
16247;DHT22;8231;50.866;7.944;2023-05-13T09:08:58;30.00;60.10
16247;DHT22;8231;50.866;7.944;2023-05-13T09:11:27;29.70;58.00
16247;DHT22;8231;50.866;7.944;2023-05-13T09:13:56;28.90;58.00
16247;DHT22;8231;50.866;7.944;2023-05-13T09:16:27;28.70;62.60
16247;DHT22;8231;50.866;7.944;2023-05-13T09:18:57;28.90;59.40
16247;DHT22;8231;50.866;7.944;2023-05-13T09:21:27;28.90;58.30
16247;DHT22;8231;50.866;7.944;2023-05-13T09:24:08;28.70;56.90
16247;DHT22;8231;50.866;7.944;2023-05-13T09:26:37;28.70;61.20
16247;DHT22;8231;50.866;7.944;2023-05-13T09:29:17;29.20;62.00
16247;DHT22;8231;50.866;7.944;2023-05-13T09:31:47;29.50;59.30
16247;DHT22;8231;50.866;7.944;2023-05-13T09:34:23;29.70;56.10
16247;DHT22;8231;50.866;7.944;2023-05-13T09:36:57;29.60;54.50
16247;DHT22;8231;50.866;7.944;2023-05-13T09:39:27;29.30;53.90
16247;DHT22;8231;50.866;7.944;2023-05-13T09:41:59;28.90;57.30
16247;DHT22;8231;50.866;7.944;2023-05-13T09:44:31;28.60;54.50
16247;DHT22;8231;50.866;7.944;2023-05-13T09:47:00;28.30;54.10
16247;DHT22;8231;50.866;7.944;2023-05-13T09:49:30;28.10;57.20
16247;DHT22;8231;50.866;7.944;2023-05-13T09:51:59;27.70;54.90
16247;DHT22;8231;50.866;7.944;2023-05-13T09:54:34;27.20;55.70
16247;DHT22;8231;50.866;7.944;2023-05-13T09:57:04;27.00;59.40
16247;DHT22;8231;50.866;7.944;2023-05-13T09:59:33;27.40;60.80
16247;DHT22;8231;50.866;7.944;2023-05-13T10:02:03;27.90;58.60
16247;DHT22;8231;50.866;7.944;2023-05-13T10:04:32;27.90;57.10
16247;DHT22;8231;50.866;7.944;2023-05-13T10:07:02;27.80;55.70
16247;DHT22;8231;50.866;7.944;2023-05-13T10:09:59;28.00;56.30
16247;DHT22;8231;50.866;7.944;2023-05-13T10:12:30;27.70;53.80
16247;DHT22;8231;50.866;7.944;2023-05-13T10:15:00;27.10;56.90
16247;DHT22;8231;50.866;7.944;2023-05-13T10:17:31;26.80;56.40
16247;DHT22;8231;50.866;7.944;2023-05-13T10:19:59;26.60;58.20
16247;DHT22;8231;50.866;7.944;2023-05-13T10:22:30;26.60;56.30
16247;DHT22;8231;50.866;7.944;2023-05-13T10:25:02;26.70;56.70
16247;DHT22;8231;50.866;7.944;2023-05-13T10:27:32;27.00;57.90
16247;DHT22;8231;50.866;7.944;2023-05-13T10:30:01;27.30;57.70
16247;DHT22;8231;50.866;7.944;2023-05-13T10:32:32;27.20;53.60
16247;DHT22;8231;50.866;7.944;2023-05-13T10:35:05;27.20;58.40
16247;DHT22;8231;50.866;7.944;2023-05-13T10:38:00;27.60;57.10
16247;DHT22;8231;50.866;7.944;2023-05-13T10:43:35;27.20;53.80
16247;DHT22;8231;50.866;7.944;2023-05-13T10:46:05;26.90;53.60
16247;DHT22;8231;50.866;7.944;2023-05-13T10:48:42;26.70;55.10
16247;DHT22;8231;50.866;7.944;2023-05-13T10:54:35;26.40;56.60
16247;DHT22;8231;50.866;7.944;2023-05-13T10:57:05;26.80;57.00
16247;DHT22;8231;50.866;7.944;2023-05-13T10:59:34;27.00;57.30
16247;DHT22;8231;50.866;7.944;2023-05-13T11:02:20;26.60;54.90
16247;DHT22;8231;50.866;7.944;2023-05-13T11:04:58;26.20;55.20
16247;DHT22;8231;50.866;7.944;2023-05-13T11:07:28;25.50;54.40
16247;DHT22;8231;50.866;7.944;2023-05-13T11:09:58;25.30;56.30
16247;DHT22;8231;50.866;7.944;2023-05-13T11:12:27;25.40;57.50
16247;DHT22;8231;50.866;7.944;2023-05-13T11:14:56;25.60;57.90
16247;DHT22;8231;50.866;7.944;2023-05-13T11:21:35;26.60;59.00
16247;DHT22;8231;50.866;7.944;2023-05-13T11:24:06;26.30;54.80
16247;DHT22;8231;50.866;7.944;2023-05-13T11:26:46;26.10;55.00
16247;DHT22;8231;50.866;7.944;2023-05-13T11:29:26;26.00;55.50
16247;DHT22;8231;50.866;7.944;2023-05-13T11:31:57;25.60;55.90
16247;DHT22;8231;50.866;7.944;2023-05-13T11:34:27;25.50;56.40
16247;DHT22;8231;50.866;7.944;2023-05-13T11:37:05;25.30;55.80
16247;DHT22;8231;50.866;7.944;2023-05-13T11:39:34;25.00;55.60
16247;DHT22;8231;50.866;7.944;2023-05-13T11:42:06;24.80;55.90
16247;DHT22;8231;50.866;7.944;2023-05-13T11:44:35;24.90;55.50
16247;DHT22;8231;50.866;7.944;2023-05-13T11:47:05;24.70;53.80
16247;DHT22;8231;50.866;7.944;2023-05-13T11:49:38;24.60;56.50
16247;DHT22;8231;50.866;7.944;2023-05-13T11:52:09;24.70;54.60
16247;DHT22;8231;50.866;7.944;2023-05-13T11:54:46;24.40;57.40
16247;DHT22;8231;50.866;7.944;2023-05-13T11:57:22;24.20;61.90
16247;DHT22;8231;50.866;7.944;2023-05-13T11:59:52;23.80;60.40
16247;DHT22;8231;50.866;7.944;2023-05-13T12:02:23;23.60;61.70
16247;DHT22;8231;50.866;7.944;2023-05-13T12:04:52;23.40;58.90
16247;DHT22;8231;50.866;7.944;2023-05-13T12:07:22;23.40;60.00
16247;DHT22;8231;50.866;7.944;2023-05-13T12:09:51;23.30;60.50
16247;DHT22;8231;50.866;7.944;2023-05-13T12:12:20;23.20;62.80
16247;DHT22;8231;50.866;7.944;2023-05-13T12:14:49;23.10;64.20
16247;DHT22;8231;50.866;7.944;2023-05-13T12:17:19;22.80;63.90
16247;DHT22;8231;50.866;7.944;2023-05-13T12:20:06;22.30;66.30
16247;DHT22;8231;50.866;7.944;2023-05-13T12:22:36;22.10;66.00
16247;DHT22;8231;50.866;7.944;2023-05-13T12:25:37;21.90;64.80
16247;DHT22;8231;50.866;7.944;2023-05-13T12:28:06;21.50;66.70
16247;DHT22;8231;50.866;7.944;2023-05-13T12:30:35;21.20;69.00
16247;DHT22;8231;50.866;7.944;2023-05-13T12:33:04;21.00;68.10
16247;DHT22;8231;50.866;7.944;2023-05-13T12:35:34;20.80;71.80
16247;DHT22;8231;50.866;7.944;2023-05-13T12:38:03;20.60;80.50
16247;DHT22;8231;50.866;7.944;2023-05-13T12:40:32;20.40;82.70
16247;DHT22;8231;50.866;7.944;2023-05-13T12:43:01;20.30;85.60
16247;DHT22;8231;50.866;7.944;2023-05-13T12:45:31;20.30;88.10
16247;DHT22;8231;50.866;7.944;2023-05-13T12:48:00;20.20;90.20
16247;DHT22;8231;50.866;7.944;2023-05-13T12:50:29;20.20;94.80
16247;DHT22;8231;50.866;7.944;2023-05-13T12:53:02;20.20;93.90
16247;DHT22;8231;50.866;7.944;2023-05-13T12:55:30;20.20;96.30
16247;DHT22;8231;50.866;7.944;2023-05-13T12:58:00;20.20;96.90
16247;DHT22;8231;50.866;7.944;2023-05-13T13:00:29;20.40;99.30
16247;DHT22;8231;50.866;7.944;2023-05-13T13:02:58;20.20;96.70
16247;DHT22;8231;50.866;7.944;2023-05-13T13:05:27;20.10;94.30
16247;DHT22;8231;50.866;7.944;2023-05-13T13:07:55;20.00;94.70
16247;DHT22;8231;50.866;7.944;2023-05-13T13:10:24;19.90;92.10
16247;DHT22;8231;50.866;7.944;2023-05-13T13:12:53;19.90;93.30
16247;DHT22;8231;50.866;7.944;2023-05-13T13:15:21;20.10;93.30
16247;DHT22;8231;50.866;7.944;2023-05-13T13:17:49;20.10;92.70
16247;DHT22;8231;50.866;7.944;2023-05-13T13:20:18;20.20;94.50
16247;DHT22;8231;50.866;7.944;2023-05-13T13:22:46;20.40;96.70
16247;DHT22;8231;50.866;7.944;2023-05-13T13:25:14;20.30;96.30
16247;DHT22;8231;50.866;7.944;2023-05-13T13:27:44;20.20;98.10
16247;DHT22;8231;50.866;7.944;2023-05-13T13:30:13;20.20;97.80
16247;DHT22;8231;50.866;7.944;2023-05-13T13:32:41;20.30;96.60
16247;DHT22;8231;50.866;7.944;2023-05-13T13:35:10;20.50;94.80
16247;DHT22;8231;50.866;7.944;2023-05-13T13:37:38;20.60;93.90
16247;DHT22;8231;50.866;7.944;2023-05-13T13:40:07;20.80;92.70
16247;DHT22;8231;50.866;7.944;2023-05-13T13:42:35;21.00;93.40
16247;DHT22;8231;50.866;7.944;2023-05-13T13:45:12;21.10;92.70
16247;DHT22;8231;50.866;7.944;2023-05-13T13:47:41;21.20;88.90
16247;DHT22;8231;50.866;7.944;2023-05-13T13:50:10;21.10;91.30
16247;DHT22;8231;50.866;7.944;2023-05-13T13:52:39;21.30;88.20
16247;DHT22;8231;50.866;7.944;2023-05-13T13:55:08;21.50;88.30
16247;DHT22;8231;50.866;7.944;2023-05-13T13:57:37;21.20;84.20
16247;DHT22;8231;50.866;7.944;2023-05-13T14:00:06;21.00;87.60
16247;DHT22;8231;50.866;7.944;2023-05-13T14:02:36;20.80;85.90
16247;DHT22;8231;50.866;7.944;2023-05-13T14:05:06;20.90;87.60
16247;DHT22;8231;50.866;7.944;2023-05-13T14:07:35;20.80;84.50
16247;DHT22;8231;50.866;7.944;2023-05-13T14:10:04;20.90;85.60
16247;DHT22;8231;50.866;7.944;2023-05-13T14:12:32;21.00;82.90
16247;DHT22;8231;50.866;7.944;2023-05-13T14:15:01;20.90;82.70
16247;DHT22;8231;50.866;7.944;2023-05-13T14:17:31;20.80;80.00
16247;DHT22;8231;50.866;7.944;2023-05-13T14:20:00;21.00;81.60
16247;DHT22;8231;50.866;7.944;2023-05-13T14:22:29;20.90;79.40
16247;DHT22;8231;50.866;7.944;2023-05-13T14:24:58;21.10;79.10
16247;DHT22;8231;50.866;7.944;2023-05-13T14:27:27;21.40;78.40
16247;DHT22;8231;50.866;7.944;2023-05-13T14:29:55;21.50;78.70
16247;DHT22;8231;50.866;7.944;2023-05-13T14:32:24;21.50;76.90
16247;DHT22;8231;50.866;7.944;2023-05-13T14:34:52;21.40;74.60
16247;DHT22;8231;50.866;7.944;2023-05-13T14:37:22;21.40;73.90
16247;DHT22;8231;50.866;7.944;2023-05-13T14:39:50;21.30;72.50
16247;DHT22;8231;50.866;7.944;2023-05-13T14:42:19;21.10;73.10
16247;DHT22;8231;50.866;7.944;2023-05-13T14:44:47;21.10;75.80
16247;DHT22;8231;50.866;7.944;2023-05-13T14:47:15;21.20;75.40
16247;DHT22;8231;50.866;7.944;2023-05-13T14:49:43;21.10;72.90
16247;DHT22;8231;50.866;7.944;2023-05-13T14:52:12;21.20;70.10
16247;DHT22;8231;50.866;7.944;2023-05-13T14:54:41;21.30;70.90
16247;DHT22;8231;50.866;7.944;2023-05-13T14:57:10;21.40;70.40
16247;DHT22;8231;50.866;7.944;2023-05-13T14:59:38;21.60;73.30
16247;DHT22;8231;50.866;7.944;2023-05-13T15:02:07;21.50;71.10
16247;DHT22;8231;50.866;7.944;2023-05-13T15:04:35;21.80;70.70
16247;DHT22;8231;50.866;7.944;2023-05-13T15:07:04;21.90;71.40
16247;DHT22;8231;50.866;7.944;2023-05-13T15:09:32;21.90;70.00
16247;DHT22;8231;50.866;7.944;2023-05-13T15:12:02;21.70;70.80
16247;DHT22;8231;50.866;7.944;2023-05-13T15:14:30;21.70;70.70
16247;DHT22;8231;50.866;7.944;2023-05-13T15:16:58;21.70;70.90
16247;DHT22;8231;50.866;7.944;2023-05-13T15:19:27;21.60;70.50
16247;DHT22;8231;50.866;7.944;2023-05-13T15:21:56;21.60;72.80
16247;DHT22;8231;50.866;7.944;2023-05-13T15:24:24;21.70;71.80
16247;DHT22;8231;50.866;7.944;2023-05-13T15:26:52;21.60;71.10
16247;DHT22;8231;50.866;7.944;2023-05-13T15:29:22;21.60;72.00
16247;DHT22;8231;50.866;7.944;2023-05-13T15:31:50;21.50;71.70
16247;DHT22;8231;50.866;7.944;2023-05-13T15:34:19;21.30;73.20
16247;DHT22;8231;50.866;7.944;2023-05-13T15:36:47;21.30;74.30
16247;DHT22;8231;50.866;7.944;2023-05-13T15:39:15;21.50;72.30
16247;DHT22;8231;50.866;7.944;2023-05-13T15:41:44;21.70;74.10
16247;DHT22;8231;50.866;7.944;2023-05-13T15:44:12;21.80;73.00
16247;DHT22;8231;50.866;7.944;2023-05-13T15:46:42;21.80;72.10
16247;DHT22;8231;50.866;7.944;2023-05-13T15:49:13;21.70;71.60
16247;DHT22;8231;50.866;7.944;2023-05-13T15:51:42;21.70;72.50
16247;DHT22;8231;50.866;7.944;2023-05-13T15:54:10;21.70;71.00
16247;DHT22;8231;50.866;7.944;2023-05-13T15:56:38;21.60;70.10
16247;DHT22;8231;50.866;7.944;2023-05-13T15:59:07;21.40;69.60
16247;DHT22;8231;50.866;7.944;2023-05-13T16:01:35;21.50;71.80
16247;DHT22;8231;50.866;7.944;2023-05-13T16:04:07;21.50;70.10
16247;DHT22;8231;50.866;7.944;2023-05-13T16:06:36;21.50;69.90
16247;DHT22;8231;50.866;7.944;2023-05-13T16:09:04;21.40;70.30
16247;DHT22;8231;50.866;7.944;2023-05-13T16:11:32;21.50;70.50
16247;DHT22;8231;50.866;7.944;2023-05-13T16:14:00;21.60;69.70
16247;DHT22;8231;50.866;7.944;2023-05-13T16:16:29;21.80;69.20
16247;DHT22;8231;50.866;7.944;2023-05-13T16:18:57;21.60;69.10
16247;DHT22;8231;50.866;7.944;2023-05-13T16:21:26;21.40;69.70